Terminal Aerodrome Forecast
Issued by NWS

Home | Current Version | Previous Version | Text Only | Print | Product List | Glossary On
Versions: 1 2 3 4 5 6 7 8 9 10 11 12
000
FTUS43 KTOP 192320
TAFFOE
TAF
KFOE 192320Z 2000/2024 16006KT P6SM SCT250
     FM200600 18008KT P6SM SCT250 WS020/20035KT
     FM201400 17012KT P6SM FEW250
     FM201900 17018G27KT P6SM SCT150=

USA.gov is the U.S. government's official web portal to all federal, state and local government web resources and services.